sensor_id;sensor_type;location;lat;lon;timestamp;P1;durP1;ratioP1;P2;durP2;ratioP2
75732;SDS011;73508;47.450;19.128;2024-02-16T00:00:02;38.00;;;18.70;;
75732;SDS011;73508;47.450;19.128;2024-02-16T00:02:28;35.97;;;17.95;;
75732;SDS011;73508;47.450;19.128;2024-02-16T00:04:53;38.30;;;16.73;;
75732;SDS011;73508;47.450;19.128;2024-02-16T00:07:19;31.73;;;16.63;;
75732;SDS011;73508;47.450;19.128;2024-02-16T00:09:44;32.60;;;16.17;;
75732;SDS011;73508;47.450;19.128;2024-02-16T00:12:09;31.43;;;15.93;;
75732;SDS011;73508;47.450;19.128;2024-02-16T00:14:35;30.27;;;15.53;;
75732;SDS011;73508;47.450;19.128;2024-02-16T00:17:00;33.30;;;16.20;;
75732;SDS011;73508;47.450;19.128;2024-02-16T00:19:25;30.87;;;16.33;;
75732;SDS011;73508;47.450;19.128;2024-02-16T00:21:52;29.10;;;15.63;;
75732;SDS011;73508;47.450;19.128;2024-02-16T00:24:18;31.42;;;16.20;;
75732;SDS011;73508;47.450;19.128;2024-02-16T00:26:43;30.57;;;15.93;;
75732;SDS011;73508;47.450;19.128;2024-02-16T00:29:10;31.93;;;15.90;;
75732;SDS011;73508;47.450;19.128;2024-02-16T00:31:35;31.67;;;15.35;;
75732;SDS011;73508;47.450;19.128;2024-02-16T00:34:01;29.53;;;15.50;;
75732;SDS011;73508;47.450;19.128;2024-02-16T00:36:26;31.27;;;16.63;;
75732;SDS011;73508;47.450;19.128;2024-02-16T00:38:52;28.50;;;15.45;;
75732;SDS011;73508;47.450;19.128;2024-02-16T00:41:21;27.03;;;15.07;;
75732;SDS011;73508;47.450;19.128;2024-02-16T00:43:47;29.23;;;15.68;;
75732;SDS011;73508;47.450;19.128;2024-02-16T00:46:13;28.87;;;15.13;;
75732;SDS011;73508;47.450;19.128;2024-02-16T00:48:38;28.57;;;14.57;;
75732;SDS011;73508;47.450;19.128;2024-02-16T00:51:03;29.93;;;14.97;;
75732;SDS011;73508;47.450;19.128;2024-02-16T00:53:29;28.50;;;15.77;;
75732;SDS011;73508;47.450;19.128;2024-02-16T00:55:54;32.13;;;15.57;;
75732;SDS011;73508;47.450;19.128;2024-02-16T00:58:19;30.03;;;14.90;;
75732;SDS011;73508;47.450;19.128;2024-02-16T01:00:45;25.60;;;14.00;;
75732;SDS011;73508;47.450;19.128;2024-02-16T01:03:10;28.47;;;15.33;;
75732;SDS011;73508;47.450;19.128;2024-02-16T01:05:37;30.42;;;14.65;;
75732;SDS011;73508;47.450;19.128;2024-02-16T01:08:03;27.33;;;15.20;;
75732;SDS011;73508;47.450;19.128;2024-02-16T01:10:28;27.80;;;15.10;;
75732;SDS011;73508;47.450;19.128;2024-02-16T01:12:53;29.83;;;15.60;;
75732;SDS011;73508;47.450;19.128;2024-02-16T01:15:20;28.60;;;15.00;;
75732;SDS011;73508;47.450;19.128;2024-02-16T01:17:46;28.95;;;14.82;;
75732;SDS011;73508;47.450;19.128;2024-02-16T01:20:11;29.00;;;15.27;;
75732;SDS011;73508;47.450;19.128;2024-02-16T01:22:37;25.50;;;14.95;;
75732;SDS011;73508;47.450;19.128;2024-02-16T01:25:04;28.77;;;15.23;;
75732;SDS011;73508;47.450;19.128;2024-02-16T01:27:29;27.92;;;14.35;;
75732;SDS011;73508;47.450;19.128;2024-02-16T01:29:55;31.27;;;14.53;;
75732;SDS011;73508;47.450;19.128;2024-02-16T01:32:20;29.90;;;15.70;;
75732;SDS011;73508;47.450;19.128;2024-02-16T01:34:46;26.47;;;14.37;;
75732;SDS011;73508;47.450;19.128;2024-02-16T01:37:14;28.80;;;15.10;;
75732;SDS011;73508;47.450;19.128;2024-02-16T01:39:39;26.57;;;15.03;;
75732;SDS011;73508;47.450;19.128;2024-02-16T01:42:05;27.43;;;14.23;;
75732;SDS011;73508;47.450;19.128;2024-02-16T01:44:30;29.95;;;15.50;;
75732;SDS011;73508;47.450;19.128;2024-02-16T01:46:56;29.20;;;14.70;;
75732;SDS011;73508;47.450;19.128;2024-02-16T01:49:21;30.97;;;14.30;;
75732;SDS011;73508;47.450;19.128;2024-02-16T01:51:46;26.17;;;14.47;;
75732;SDS011;73508;47.450;19.128;2024-02-16T01:54:12;28.60;;;14.27;;
75732;SDS011;73508;47.450;19.128;2024-02-16T01:56:37;30.63;;;14.90;;
75732;SDS011;73508;47.450;19.128;2024-02-16T01:59:03;26.07;;;14.40;;
75732;SDS011;73508;47.450;19.128;2024-02-16T02:04:03;26.20;;;14.15;;
75732;SDS011;73508;47.450;19.128;2024-02-16T02:06:31;29.85;;;15.13;;
75732;SDS011;73508;47.450;19.128;2024-02-16T02:08:56;27.67;;;14.47;;
75732;SDS011;73508;47.450;19.128;2024-02-16T02:11:21;29.53;;;16.33;;
75732;SDS011;73508;47.450;19.128;2024-02-16T02:13:48;30.30;;;14.50;;
75732;SDS011;73508;47.450;19.128;2024-02-16T02:16:13;28.83;;;14.23;;
75732;SDS011;73508;47.450;19.128;2024-02-16T02:18:40;29.45;;;14.93;;
75732;SDS011;73508;47.450;19.128;2024-02-16T02:21:05;26.63;;;14.10;;
75732;SDS011;73508;47.450;19.128;2024-02-16T02:23:30;27.90;;;14.30;;
75732;SDS011;73508;47.450;19.128;2024-02-16T02:25:56;30.03;;;14.53;;
75732;SDS011;73508;47.450;19.128;2024-02-16T02:28:21;29.57;;;15.33;;
75732;SDS011;73508;47.450;19.128;2024-02-16T02:30:48;30.65;;;13.90;;
75732;SDS011;73508;47.450;19.128;2024-02-16T02:33:14;28.67;;;15.23;;
75732;SDS011;73508;47.450;19.128;2024-02-16T02:35:39;25.63;;;14.00;;
75732;SDS011;73508;47.450;19.128;2024-02-16T02:38:05;27.35;;;14.13;;
75732;SDS011;73508;47.450;19.128;2024-02-16T02:40:30;29.50;;;15.23;;
75732;SDS011;73508;47.450;19.128;2024-02-16T02:42:56;31.02;;;15.30;;
75732;SDS011;73508;47.450;19.128;2024-02-16T02:45:22;27.57;;;13.77;;
75732;SDS011;73508;47.450;19.128;2024-02-16T02:47:48;28.27;;;14.85;;
75732;SDS011;73508;47.450;19.128;2024-02-16T02:50:13;28.97;;;15.17;;
75732;SDS011;73508;47.450;19.128;2024-02-16T02:52:38;27.47;;;14.23;;
75732;SDS011;73508;47.450;19.128;2024-02-16T02:55:04;31.80;;;15.55;;
75732;SDS011;73508;47.450;19.128;2024-02-16T02:57:30;28.27;;;14.33;;
75732;SDS011;73508;47.450;19.128;2024-02-16T03:00:05;29.57;;;15.13;;
75732;SDS011;73508;47.450;19.128;2024-02-16T03:02:31;26.65;;;14.05;;
75732;SDS011;73508;47.450;19.128;2024-02-16T03:04:57;28.55;;;14.25;;
75732;SDS011;73508;47.450;19.128;2024-02-16T03:07:22;30.37;;;14.60;;
75732;SDS011;73508;47.450;19.128;2024-02-16T03:09:47;30.47;;;15.53;;
75732;SDS011;73508;47.450;19.128;2024-02-16T03:12:13;30.03;;;16.00;;
75732;SDS011;73508;47.450;19.128;2024-02-16T03:14:38;29.97;;;14.83;;
75732;SDS011;73508;47.450;19.128;2024-02-16T03:17:03;32.20;;;16.07;;
75732;SDS011;73508;47.450;19.128;2024-02-16T03:19:29;30.30;;;15.20;;
75732;SDS011;73508;47.450;19.128;2024-02-16T03:21:54;31.35;;;15.45;;
75732;SDS011;73508;47.450;19.128;2024-02-16T03:24:20;28.50;;;14.33;;
75732;SDS011;73508;47.450;19.128;2024-02-16T03:26:45;30.30;;;14.97;;
75732;SDS011;73508;47.450;19.128;2024-02-16T03:29:10;30.47;;;14.67;;
75732;SDS011;73508;47.450;19.128;2024-02-16T03:31:36;30.83;;;14.83;;
75732;SDS011;73508;47.450;19.128;2024-02-16T03:34:01;29.30;;;15.00;;
75732;SDS011;73508;47.450;19.128;2024-02-16T03:36:26;31.03;;;15.97;;
75732;SDS011;73508;47.450;19.128;2024-02-16T03:38:52;30.13;;;14.87;;
75732;SDS011;73508;47.450;19.128;2024-02-16T03:41:18;26.60;;;14.77;;
75732;SDS011;73508;47.450;19.128;2024-02-16T03:43:44;35.20;;;15.90;;
75732;SDS011;73508;47.450;19.128;2024-02-16T03:46:10;30.62;;;15.90;;
75732;SDS011;73508;47.450;19.128;2024-02-16T03:48:35;29.27;;;15.63;;
75732;SDS011;73508;47.450;19.128;2024-02-16T03:51:01;28.50;;;15.07;;
75732;SDS011;73508;47.450;19.128;2024-02-16T03:53:28;28.33;;;15.23;;
75732;SDS011;73508;47.450;19.128;2024-02-16T03:55:53;31.30;;;15.57;;
75732;SDS011;73508;47.450;19.128;2024-02-16T03:58:18;28.67;;;15.40;;
75732;SDS011;73508;47.450;19.128;2024-02-16T04:00:44;32.13;;;16.50;;
75732;SDS011;73508;47.450;19.128;2024-02-16T04:03:09;31.58;;;15.30;;
75732;SDS011;73508;47.450;19.128;2024-02-16T04:05:35;31.37;;;15.43;;
75732;SDS011;73508;47.450;19.128;2024-02-16T04:08:03;31.70;;;16.30;;
75732;SDS011;73508;47.450;19.128;2024-02-16T04:10:29;28.23;;;14.33;;
75732;SDS011;73508;47.450;19.128;2024-02-16T04:12:54;36.30;;;17.10;;
75732;SDS011;73508;47.450;19.128;2024-02-16T04:15:20;30.47;;;15.00;;
75732;SDS011;73508;47.450;19.128;2024-02-16T04:17:45;32.10;;;15.37;;
75732;SDS011;73508;47.450;19.128;2024-02-16T04:20:10;31.93;;;14.60;;
75732;SDS011;73508;47.450;19.128;2024-02-16T04:22:36;35.33;;;15.60;;
75732;SDS011;73508;47.450;19.128;2024-02-16T04:25:03;33.92;;;16.12;;
75732;SDS011;73508;47.450;19.128;2024-02-16T04:27:29;31.70;;;16.00;;
75732;SDS011;73508;47.450;19.128;2024-02-16T04:29:54;29.27;;;14.60;;
75732;SDS011;73508;47.450;19.128;2024-02-16T04:32:20;30.27;;;14.50;;
75732;SDS011;73508;47.450;19.128;2024-02-16T04:34:45;32.17;;;15.83;;
75732;SDS011;73508;47.450;19.128;2024-02-16T04:37:11;35.90;;;16.23;;
75732;SDS011;73508;47.450;19.128;2024-02-16T04:39:37;32.83;;;15.37;;
75732;SDS011;73508;47.450;19.128;2024-02-16T04:42:03;35.00;;;15.63;;
75732;SDS011;73508;47.450;19.128;2024-02-16T04:44:28;31.15;;;16.23;;
75732;SDS011;73508;47.450;19.128;2024-02-16T04:46:54;32.60;;;16.53;;
75732;SDS011;73508;47.450;19.128;2024-02-16T04:49:19;30.73;;;15.70;;
75732;SDS011;73508;47.450;19.128;2024-02-16T04:51:45;32.72;;;15.10;;
75732;SDS011;73508;47.450;19.128;2024-02-16T04:54:12;31.35;;;16.23;;
75732;SDS011;73508;47.450;19.128;2024-02-16T04:56:38;32.72;;;15.73;;
75732;SDS011;73508;47.450;19.128;2024-02-16T04:59:04;32.95;;;16.45;;
75732;SDS011;73508;47.450;19.128;2024-02-16T05:01:30;31.33;;;15.67;;
75732;SDS011;73508;47.450;19.128;2024-02-16T05:03:56;29.12;;;15.43;;
75732;SDS011;73508;47.450;19.128;2024-02-16T05:06:23;29.63;;;14.98;;
75732;SDS011;73508;47.450;19.128;2024-02-16T05:08:48;35.27;;;14.67;;
75732;SDS011;73508;47.450;19.128;2024-02-16T05:11:14;30.62;;;15.20;;
75732;SDS011;73508;47.450;19.128;2024-02-16T05:13:40;36.37;;;15.93;;
75732;SDS011;73508;47.450;19.128;2024-02-16T05:16:10;36.20;;;15.43;;
75732;SDS011;73508;47.450;19.128;2024-02-16T05:18:36;32.90;;;15.50;;
75732;SDS011;73508;47.450;19.128;2024-02-16T05:21:03;34.60;;;16.15;;
75732;SDS011;73508;47.450;19.128;2024-02-16T05:23:28;33.20;;;15.37;;
75732;SDS011;73508;47.450;19.128;2024-02-16T05:25:53;31.90;;;14.97;;
75732;SDS011;73508;47.450;19.128;2024-02-16T05:28:19;32.23;;;15.50;;
75732;SDS011;73508;47.450;19.128;2024-02-16T05:30:44;37.40;;;16.33;;
75732;SDS011;73508;47.450;19.128;2024-02-16T05:33:10;34.47;;;16.67;;
75732;SDS011;73508;47.450;19.128;2024-02-16T05:35:36;35.15;;;17.05;;
75732;SDS011;73508;47.450;19.128;2024-02-16T05:38:05;33.53;;;16.23;;
75732;SDS011;73508;47.450;19.128;2024-02-16T05:40:46;34.88;;;17.27;;
75732;SDS011;73508;47.450;19.128;2024-02-16T05:43:19;36.40;;;18.17;;
75732;SDS011;73508;47.450;19.128;2024-02-16T05:45:45;35.57;;;17.50;;
75732;SDS011;73508;47.450;19.128;2024-02-16T05:48:11;34.70;;;17.27;;
75732;SDS011;73508;47.450;19.128;2024-02-16T05:50:36;38.80;;;17.55;;
75732;SDS011;73508;47.450;19.128;2024-02-16T05:53:02;34.93;;;16.63;;
75732;SDS011;73508;47.450;19.128;2024-02-16T05:55:27;35.30;;;17.63;;
75732;SDS011;73508;47.450;19.128;2024-02-16T05:57:53;37.93;;;18.00;;
75732;SDS011;73508;47.450;19.128;2024-02-16T06:00:18;33.43;;;17.03;;
75732;SDS011;73508;47.450;19.128;2024-02-16T06:02:46;35.88;;;17.62;;
75732;SDS011;73508;47.450;19.128;2024-02-16T06:05:12;40.38;;;18.58;;
75732;SDS011;73508;47.450;19.128;2024-02-16T06:07:38;37.57;;;19.30;;
75732;SDS011;73508;47.450;19.128;2024-02-16T06:10:03;42.72;;;20.23;;
75732;SDS011;73508;47.450;19.128;2024-02-16T06:12:32;37.85;;;18.65;;
75732;SDS011;73508;47.450;19.128;2024-02-16T06:14:57;37.87;;;19.07;;
75732;SDS011;73508;47.450;19.128;2024-02-16T06:17:23;42.73;;;21.47;;
75732;SDS011;73508;47.450;19.128;2024-02-16T06:19:49;37.78;;;19.55;;
75732;SDS011;73508;47.450;19.128;2024-02-16T06:22:14;42.60;;;20.20;;
75732;SDS011;73508;47.450;19.128;2024-02-16T06:24:40;38.05;;;19.17;;
75732;SDS011;73508;47.450;19.128;2024-02-16T06:27:05;35.00;;;17.97;;
75732;SDS011;73508;47.450;19.128;2024-02-16T06:29:33;38.60;;;19.62;;
75732;SDS011;73508;47.450;19.128;2024-02-16T06:31:58;44.87;;;20.33;;
75732;SDS011;73508;47.450;19.128;2024-02-16T06:34:24;37.03;;;19.77;;
75732;SDS011;73508;47.450;19.128;2024-02-16T06:36:49;47.53;;;19.73;;
75732;SDS011;73508;47.450;19.128;2024-02-16T06:39:17;41.40;;;20.10;;
75732;SDS011;73508;47.450;19.128;2024-02-16T06:41:43;43.47;;;19.83;;
75732;SDS011;73508;47.450;19.128;2024-02-16T06:44:10;40.22;;;20.48;;
75732;SDS011;73508;47.450;19.128;2024-02-16T06:46:35;40.10;;;19.17;;
75732;SDS011;73508;47.450;19.128;2024-02-16T06:49:01;38.43;;;19.50;;
75732;SDS011;73508;47.450;19.128;2024-02-16T06:51:26;37.43;;;19.37;;
75732;SDS011;73508;47.450;19.128;2024-02-16T06:53:53;37.30;;;19.42;;
75732;SDS011;73508;47.450;19.128;2024-02-16T06:56:19;36.30;;;19.27;;
75732;SDS011;73508;47.450;19.128;2024-02-16T06:58:47;39.20;;;19.07;;
75732;SDS011;73508;47.450;19.128;2024-02-16T07:01:13;37.55;;;20.20;;
75732;SDS011;73508;47.450;19.128;2024-02-16T07:03:39;41.85;;;19.42;;
75732;SDS011;73508;47.450;19.128;2024-02-16T07:06:04;40.20;;;18.23;;
75732;SDS011;73508;47.450;19.128;2024-02-16T07:08:34;37.78;;;17.92;;
75732;SDS011;73508;47.450;19.128;2024-02-16T07:11:00;35.47;;;18.07;;
75732;SDS011;73508;47.450;19.128;2024-02-16T07:13:25;35.80;;;17.67;;
75732;SDS011;73508;47.450;19.128;2024-02-16T07:15:50;31.20;;;17.00;;
75732;SDS011;73508;47.450;19.128;2024-02-16T07:18:16;38.20;;;17.63;;
75732;SDS011;73508;47.450;19.128;2024-02-16T07:20:41;34.87;;;17.07;;
75732;SDS011;73508;47.450;19.128;2024-02-16T07:23:07;32.77;;;16.53;;
75732;SDS011;73508;47.450;19.128;2024-02-16T07:25:34;30.90;;;16.87;;
75732;SDS011;73508;47.450;19.128;2024-02-16T07:28:00;30.73;;;16.25;;
75732;SDS011;73508;47.450;19.128;2024-02-16T07:30:25;31.77;;;15.50;;
75732;SDS011;73508;47.450;19.128;2024-02-16T07:32:51;29.40;;;16.03;;
75732;SDS011;73508;47.450;19.128;2024-02-16T07:35:17;31.55;;;16.65;;
75732;SDS011;73508;47.450;19.128;2024-02-16T07:37:43;32.05;;;15.60;;
75732;SDS011;73508;47.450;19.128;2024-02-16T07:40:09;28.50;;;14.87;;
75732;SDS011;73508;47.450;19.128;2024-02-16T07:42:38;30.77;;;14.25;;
75732;SDS011;73508;47.450;19.128;2024-02-16T07:45:05;29.80;;;14.73;;
75732;SDS011;73508;47.450;19.128;2024-02-16T07:47:31;26.77;;;14.23;;
75732;SDS011;73508;47.450;19.128;2024-02-16T07:49:56;31.33;;;14.70;;
75732;SDS011;73508;47.450;19.128;2024-02-16T07:52:22;24.23;;;13.37;;
75732;SDS011;73508;47.450;19.128;2024-02-16T07:54:47;26.20;;;13.67;;
75732;SDS011;73508;47.450;19.128;2024-02-16T07:57:13;25.83;;;13.90;;
75732;SDS011;73508;47.450;19.128;2024-02-16T07:59:40;26.08;;;13.80;;
75732;SDS011;73508;47.450;19.128;2024-02-16T08:02:05;24.77;;;13.27;;
75732;SDS011;73508;47.450;19.128;2024-02-16T08:04:32;23.73;;;12.60;;
75732;SDS011;73508;47.450;19.128;2024-02-16T08:06:57;25.77;;;11.90;;
75732;SDS011;73508;47.450;19.128;2024-02-16T08:09:22;21.97;;;12.40;;
75732;SDS011;73508;47.450;19.128;2024-02-16T08:11:48;26.33;;;12.73;;
75732;SDS011;73508;47.450;19.128;2024-02-16T08:14:13;22.77;;;11.17;;
75732;SDS011;73508;47.450;19.128;2024-02-16T08:16:38;20.07;;;11.07;;
75732;SDS011;73508;47.450;19.128;2024-02-16T08:19:04;23.97;;;10.60;;
75732;SDS011;73508;47.450;19.128;2024-02-16T08:21:29;22.23;;;11.70;;
75732;SDS011;73508;47.450;19.128;2024-02-16T08:23:54;20.15;;;11.25;;
75732;SDS011;73508;47.450;19.128;2024-02-16T08:26:20;21.50;;;11.30;;
75732;SDS011;73508;47.450;19.128;2024-02-16T08:28:46;18.15;;;10.18;;
75732;SDS011;73508;47.450;19.128;2024-02-16T08:31:14;21.80;;;10.90;;
75732;SDS011;73508;47.450;19.128;2024-02-16T08:33:42;22.90;;;11.30;;
75732;SDS011;73508;47.450;19.128;2024-02-16T08:36:08;21.60;;;11.47;;
75732;SDS011;73508;47.450;19.128;2024-02-16T08:38:33;19.97;;;10.67;;
75732;SDS011;73508;47.450;19.128;2024-02-16T08:41:00;22.37;;;11.00;;
75732;SDS011;73508;47.450;19.128;2024-02-16T08:43:25;17.27;;;10.00;;
75732;SDS011;73508;47.450;19.128;2024-02-16T08:45:51;18.20;;;9.47;;
75732;SDS011;73508;47.450;19.128;2024-02-16T08:48:16;18.33;;;9.43;;
75732;SDS011;73508;47.450;19.128;2024-02-16T08:50:41;16.20;;;9.13;;
75732;SDS011;73508;47.450;19.128;2024-02-16T08:53:07;19.60;;;9.67;;
75732;SDS011;73508;47.450;19.128;2024-02-16T08:55:35;15.63;;;8.50;;
75732;SDS011;73508;47.450;19.128;2024-02-16T08:58:00;16.57;;;9.30;;
75732;SDS011;73508;47.450;19.128;2024-02-16T09:00:25;16.50;;;9.20;;
75732;SDS011;73508;47.450;19.128;2024-02-16T09:02:52;20.25;;;10.05;;
75732;SDS011;73508;47.450;19.128;2024-02-16T09:05:18;21.90;;;10.13;;
75732;SDS011;73508;47.450;19.128;2024-02-16T09:07:44;20.33;;;10.45;;
75732;SDS011;73508;47.450;19.128;2024-02-16T09:10:09;19.67;;;9.87;;
75732;SDS011;73508;47.450;19.128;2024-02-16T09:12:34;18.30;;;11.00;;
75732;SDS011;73508;47.450;19.128;2024-02-16T09:15:00;17.55;;;10.35;;
75732;SDS011;73508;47.450;19.128;2024-02-16T09:17:25;17.97;;;9.90;;
75732;SDS011;73508;47.450;19.128;2024-02-16T09:19:51;18.57;;;10.77;;
75732;SDS011;73508;47.450;19.128;2024-02-16T09:22:16;18.48;;;9.27;;
75732;SDS011;73508;47.450;19.128;2024-02-16T09:24:42;17.80;;;9.50;;
75732;SDS011;73508;47.450;19.128;2024-02-16T09:27:11;17.00;;;8.57;;
75732;SDS011;73508;47.450;19.128;2024-02-16T09:29:37;17.30;;;8.53;;
75732;SDS011;73508;47.450;19.128;2024-02-16T09:32:03;14.10;;;8.60;;
75732;SDS011;73508;47.450;19.128;2024-02-16T09:34:28;17.77;;;8.73;;
75732;SDS011;73508;47.450;19.128;2024-02-16T09:36:54;15.47;;;8.33;;
75732;SDS011;73508;47.450;19.128;2024-02-16T09:39:19;16.40;;;8.80;;
75732;SDS011;73508;47.450;19.128;2024-02-16T09:41:44;16.10;;;8.40;;
75732;SDS011;73508;47.450;19.128;2024-02-16T09:44:13;14.20;;;8.18;;
75732;SDS011;73508;47.450;19.128;2024-02-16T09:46:39;15.20;;;7.83;;
75732;SDS011;73508;47.450;19.128;2024-02-16T09:49:04;15.77;;;8.13;;
75732;SDS011;73508;47.450;19.128;2024-02-16T09:51:30;15.60;;;8.80;;
75732;SDS011;73508;47.450;19.128;2024-02-16T09:53:55;14.63;;;8.27;;
75732;SDS011;73508;47.450;19.128;2024-02-16T09:56:21;17.20;;;7.93;;
75732;SDS011;73508;47.450;19.128;2024-02-16T09:58:47;16.30;;;8.83;;
75732;SDS011;73508;47.450;19.128;2024-02-16T10:01:18;16.17;;;9.82;;
75732;SDS011;73508;47.450;19.128;2024-02-16T10:03:45;16.77;;;8.97;;
75732;SDS011;73508;47.450;19.128;2024-02-16T10:06:11;16.95;;;8.88;;
75732;SDS011;73508;47.450;19.128;2024-02-16T10:08:52;17.73;;;8.30;;
75732;SDS011;73508;47.450;19.128;2024-02-16T10:11:19;15.25;;;8.82;;
75732;SDS011;73508;47.450;19.128;2024-02-16T10:13:58;17.12;;;8.70;;
75732;SDS011;73508;47.450;19.128;2024-02-16T10:16:24;14.05;;;7.75;;
75732;SDS011;73508;47.450;19.128;2024-02-16T10:18:50;15.85;;;8.20;;
75732;SDS011;73508;47.450;19.128;2024-02-16T10:21:27;12.27;;;7.70;;
75732;SDS011;73508;47.450;19.128;2024-02-16T10:23:57;11.18;;;7.00;;
75732;SDS011;73508;47.450;19.128;2024-02-16T10:26:24;14.48;;;6.87;;
75732;SDS011;73508;47.450;19.128;2024-02-16T10:28:50;12.33;;;7.10;;
75732;SDS011;73508;47.450;19.128;2024-02-16T10:31:18;14.70;;;8.02;;
75732;SDS011;73508;47.450;19.128;2024-02-16T10:33:44;15.93;;;8.00;;
75732;SDS011;73508;47.450;19.128;2024-02-16T10:36:11;14.32;;;8.30;;
75732;SDS011;73508;47.450;19.128;2024-02-16T10:38:37;13.62;;;7.82;;
75732;SDS011;73508;47.450;19.128;2024-02-16T10:41:03;12.88;;;7.85;;
75732;SDS011;73508;47.450;19.128;2024-02-16T10:43:29;13.53;;;8.27;;
75732;SDS011;73508;47.450;19.128;2024-02-16T10:45:55;12.57;;;7.72;;
75732;SDS011;73508;47.450;19.128;2024-02-16T10:48:21;17.25;;;8.65;;
75732;SDS011;73508;47.450;19.128;2024-02-16T10:50:47;14.97;;;8.67;;
75732;SDS011;73508;47.450;19.128;2024-02-16T10:53:19;22.90;;;9.38;;
75732;SDS011;73508;47.450;19.128;2024-02-16T10:55:48;17.23;;;9.80;;
75732;SDS011;73508;47.450;19.128;2024-02-16T10:58:13;15.57;;;8.90;;
75732;SDS011;73508;47.450;19.128;2024-02-16T11:00:48;15.65;;;8.90;;
75732;SDS011;73508;47.450;19.128;2024-02-16T11:03:20;16.83;;;8.97;;
75732;SDS011;73508;47.450;19.128;2024-02-16T11:05:48;21.60;;;9.38;;
75732;SDS011;73508;47.450;19.128;2024-02-16T11:08:18;17.10;;;8.40;;
75732;SDS011;73508;47.450;19.128;2024-02-16T11:10:54;14.90;;;8.63;;
75732;SDS011;73508;47.450;19.128;2024-02-16T11:13:26;14.80;;;8.03;;
75732;SDS011;73508;47.450;19.128;2024-02-16T11:15:56;17.00;;;8.80;;
75732;SDS011;73508;47.450;19.128;2024-02-16T11:18:27;13.98;;;8.13;;
75732;SDS011;73508;47.450;19.128;2024-02-16T11:20:52;15.75;;;8.65;;
75732;SDS011;73508;47.450;19.128;2024-02-16T11:23:24;14.50;;;7.82;;
75732;SDS011;73508;47.450;19.128;2024-02-16T11:25:51;15.83;;;8.80;;
75732;SDS011;73508;47.450;19.128;2024-02-16T11:28:17;16.30;;;9.30;;
75732;SDS011;73508;47.450;19.128;2024-02-16T11:30:43;20.03;;;9.23;;
75732;SDS011;73508;47.450;19.128;2024-02-16T11:33:12;14.03;;;7.60;;
75732;SDS011;73508;47.450;19.128;2024-02-16T11:35:37;14.90;;;7.95;;
75732;SDS011;73508;47.450;19.128;2024-02-16T11:38:03;17.17;;;7.68;;
75732;SDS011;73508;47.450;19.128;2024-02-16T11:40:29;12.63;;;6.97;;
75732;SDS011;73508;47.450;19.128;2024-02-16T11:43:01;14.20;;;7.03;;
75732;SDS011;73508;47.450;19.128;2024-02-16T11:45:27;12.30;;;5.90;;
75732;SDS011;73508;47.450;19.128;2024-02-16T11:48:08;13.10;;;6.20;;
75732;SDS011;73508;47.450;19.128;2024-02-16T11:50:34;11.00;;;6.60;;
75732;SDS011;73508;47.450;19.128;2024-02-16T11:53:00;13.87;;;7.87;;
75732;SDS011;73508;47.450;19.128;2024-02-16T11:55:25;12.40;;;7.30;;
75732;SDS011;73508;47.450;19.128;2024-02-16T11:57:51;14.60;;;7.07;;
75732;SDS011;73508;47.450;19.128;2024-02-16T12:00:16;13.75;;;6.22;;
75732;SDS011;73508;47.450;19.128;2024-02-16T12:02:42;10.80;;;6.63;;
75732;SDS011;73508;47.450;19.128;2024-02-16T12:05:07;12.90;;;6.87;;
75732;SDS011;73508;47.450;19.128;2024-02-16T12:07:33;12.80;;;7.12;;
75732;SDS011;73508;47.450;19.128;2024-02-16T12:10:02;12.35;;;7.30;;
75732;SDS011;73508;47.450;19.128;2024-02-16T12:12:30;11.17;;;6.63;;
75732;SDS011;73508;47.450;19.128;2024-02-16T12:14:56;11.77;;;7.07;;
75732;SDS011;73508;47.450;19.128;2024-02-16T12:17:22;12.70;;;7.07;;
75732;SDS011;73508;47.450;19.128;2024-02-16T12:19:47;11.40;;;6.75;;
75732;SDS011;73508;47.450;19.128;2024-02-16T12:22:17;13.77;;;7.37;;
75732;SDS011;73508;47.450;19.128;2024-02-16T12:24:44;14.10;;;6.93;;
75732;SDS011;73508;47.450;19.128;2024-02-16T12:27:10;16.67;;;7.22;;
75732;SDS011;73508;47.450;19.128;2024-02-16T12:29:35;13.50;;;7.63;;
75732;SDS011;73508;47.450;19.128;2024-02-16T12:32:01;13.33;;;7.03;;
75732;SDS011;73508;47.450;19.128;2024-02-16T12:34:26;11.57;;;6.50;;
75732;SDS011;73508;47.450;19.128;2024-02-16T12:36:53;10.53;;;6.93;;
75732;SDS011;73508;47.450;19.128;2024-02-16T12:39:18;14.23;;;7.53;;
75732;SDS011;73508;47.450;19.128;2024-02-16T12:41:43;12.13;;;6.43;;
75732;SDS011;73508;47.450;19.128;2024-02-16T12:44:09;10.77;;;6.17;;
75732;SDS011;73508;47.450;19.128;2024-02-16T12:46:34;13.57;;;7.03;;
75732;SDS011;73508;47.450;19.128;2024-02-16T12:49:00;11.33;;;6.20;;
75732;SDS011;73508;47.450;19.128;2024-02-16T12:51:25;12.93;;;7.13;;
75732;SDS011;73508;47.450;19.128;2024-02-16T12:53:51;12.37;;;6.87;;
75732;SDS011;73508;47.450;19.128;2024-02-16T12:56:16;13.77;;;6.33;;
75732;SDS011;73508;47.450;19.128;2024-02-16T12:58:41;11.43;;;6.93;;
75732;SDS011;73508;47.450;19.128;2024-02-16T13:01:07;13.07;;;6.63;;
75732;SDS011;73508;47.450;19.128;2024-02-16T13:03:36;14.53;;;8.37;;
75732;SDS011;73508;47.450;19.128;2024-02-16T13:06:02;13.35;;;6.87;;
75732;SDS011;73508;47.450;19.128;2024-02-16T13:08:28;12.57;;;6.87;;
75732;SDS011;73508;47.450;19.128;2024-02-16T13:10:53;10.57;;;6.60;;
75732;SDS011;73508;47.450;19.128;2024-02-16T13:13:19;12.00;;;6.78;;
75732;SDS011;73508;47.450;19.128;2024-02-16T13:15:45;10.97;;;6.63;;
75732;SDS011;73508;47.450;19.128;2024-02-16T13:18:12;14.63;;;7.18;;
75732;SDS011;73508;47.450;19.128;2024-02-16T13:20:37;11.25;;;6.93;;
75732;SDS011;73508;47.450;19.128;2024-02-16T13:23:03;13.47;;;6.07;;
75732;SDS011;73508;47.450;19.128;2024-02-16T13:25:28;14.13;;;6.90;;
75732;SDS011;73508;47.450;19.128;2024-02-16T13:27:54;11.50;;;6.23;;
75732;SDS011;73508;47.450;19.128;2024-02-16T13:30:19;11.55;;;6.60;;
75732;SDS011;73508;47.450;19.128;2024-02-16T13:32:45;13.17;;;6.67;;
75732;SDS011;73508;47.450;19.128;2024-02-16T13:35:10;12.10;;;6.17;;
75732;SDS011;73508;47.450;19.128;2024-02-16T13:37:35;10.13;;;6.07;;
75732;SDS011;73508;47.450;19.128;2024-02-16T13:40:02;11.40;;;6.32;;
75732;SDS011;73508;47.450;19.128;2024-02-16T13:42:31;11.40;;;6.22;;
75732;SDS011;73508;47.450;19.128;2024-02-16T13:44:57;12.60;;;5.80;;
75732;SDS011;73508;47.450;19.128;2024-02-16T13:47:23;11.63;;;6.65;;
75732;SDS011;73508;47.450;19.128;2024-02-16T13:49:48;11.93;;;6.40;;
75732;SDS011;73508;47.450;19.128;2024-02-16T13:52:14;11.20;;;6.57;;
75732;SDS011;73508;47.450;19.128;2024-02-16T13:54:39;10.73;;;6.00;;
75732;SDS011;73508;47.450;19.128;2024-02-16T13:57:05;14.57;;;7.17;;
75732;SDS011;73508;47.450;19.128;2024-02-16T13:59:30;13.07;;;6.43;;
75732;SDS011;73508;47.450;19.128;2024-02-16T14:01:57;9.40;;;5.68;;
75732;SDS011;73508;47.450;19.128;2024-02-16T14:04:24;10.30;;;5.62;;
75732;SDS011;73508;47.450;19.128;2024-02-16T14:06:51;8.67;;;5.50;;
75732;SDS011;73508;47.450;19.128;2024-02-16T14:09:17;11.02;;;5.85;;